Time;durP1;ratioP1;P1;durP2;ratioP2;P2;SDS_P1;SDS_P2;PMS_P1;PMS_P2;Temp;Humidity;BMP_temperature;BMP_pressure;BME280_temperature;BME280_humidity;BME280_pressure;Samples;Min_cycle;Max_cycle;Signal;HPM_P1;HPM_P2
2023/12/18 00:01:01;;;;;;;10.32;3.10;;;;;;;;;;5004413;28;20578;-76
2023/12/18 00:03:31;;;;;;;12.05;3.40;;;;;;;;;;5003659;28;20231;-77
2023/12/18 00:06:01;;;;;;;15.57;4.10;;;;;;;;;;5010080;28;20567;-76
2023/12/18 00:08:33;;;;;;;10.95;3.30;;;;;;;;;;5009944;28;20275;-78
2023/12/18 00:11:03;;;;;;;13.93;3.53;;;;;;;;;;5002018;28;20552;-76
2023/12/18 00:13:33;;;;;;;12.05;3.60;;;;;;;;;;5012951;28;20214;-76
2023/12/18 00:16:03;;;;;;;13.38;3.90;;;;;;;;;;5008430;28;20231;-77
2023/12/18 00:18:33;;;;;;;10.80;3.70;;;;;;;;;;5002322;28;20565;-77
2023/12/18 00:21:03;;;;;;;10.23;3.78;;;;;;;;;;5007539;28;20195;-76
2023/12/18 00:23:35;;;;;;;16.10;4.10;;;;;;;;;;5013402;28;20245;-76
2023/12/18 00:26:05;;;;;;;12.15;4.45;;;;;;;;;;5015391;28;20191;-79
2023/12/18 00:28:35;;;;;;;10.10;3.63;;;;;;;;;;5012418;28;20712;-78
2023/12/18 00:31:05;;;;;;;11.38;3.65;;;;;;;;;;4995627;28;20578;-79
2023/12/18 00:49:36;;;;;;;14.93;3.85;;;;;;;;;;4995014;28;20238;-78
2023/12/18 01:13:33;;;;;;;16.27;4.95;;;;;;;;;;5002397;28;20224;-76
2023/12/18 01:16:03;;;;;;;20.95;4.88;;;;;;;;;;5002343;28;20200;-76
2023/12/18 01:18:33;;;;;;;13.02;4.72;;;;;;;;;;5002791;28;20648;-77
2023/12/18 01:21:05;;;;;;;11.40;4.00;;;;;;;;;;5000134;28;20199;-79
2023/12/18 01:23:35;;;;;;;12.50;4.78;;;;;;;;;;5000010;28;20612;-78
2023/12/18 01:26:05;;;;;;;12.85;4.90;;;;;;;;;;5007972;28;20203;-76
2023/12/18 01:28:36;;;;;;;15.43;4.50;;;;;;;;;;4998521;28;20199;-76
2023/12/18 01:37:14;;;;;;;10.02;4.90;;;;;;;;;;5013626;28;20177;-75
2023/12/18 01:39:43;;;;;;;14.15;4.72;;;;;;;;;;5006852;28;20214;-76
2023/12/18 01:42:13;;;;;;;14.40;5.57;;;;;;;;;;5001220;28;20243;-77
2023/12/18 01:44:46;;;;;;;15.70;4.75;;;;;;;;;;4993666;28;20211;-76
2023/12/18 01:47:15;;;;;;;13.35;4.38;;;;;;;;;;4999548;28;20194;-76
2023/12/18 01:49:45;;;;;;;14.80;4.60;;;;;;;;;;4994105;28;20203;-76
2023/12/18 01:52:15;;;;;;;18.73;5.00;;;;;;;;;;4996285;28;20199;-77
2023/12/18 01:54:46;;;;;;;10.32;4.60;;;;;;;;;;4994356;28;20199;-77
2023/12/18 01:57:16;;;;;;;15.57;4.57;;;;;;;;;;5001588;28;20689;-76
2023/12/18 01:59:48;;;;;;;11.93;4.85;;;;;;;;;;5000826;28;20202;-76
2023/12/18 02:02:18;;;;;;;14.38;5.13;;;;;;;;;;5003929;28;20568;-77
2023/12/18 02:04:48;;;;;;;13.25;4.72;;;;;;;;;;4993920;28;20231;-75
2023/12/18 02:07:21;;;;;;;9.82;4.57;;;;;;;;;;4998040;28;20195;-76
2023/12/18 02:09:52;;;;;;;15.32;4.93;;;;;;;;;;5006934;28;20198;-75
2023/12/18 02:12:22;;;;;;;13.43;5.07;;;;;;;;;;4998042;28;20187;-77
2023/12/18 02:14:56;;;;;;;15.68;5.57;;;;;;;;;;4997873;28;20203;-79
2023/12/18 02:23:35;;;;;;;16.20;6.07;;;;;;;;;;4996555;28;20266;-76
2023/12/18 02:26:05;;;;;;;14.20;5.63;;;;;;;;;;4998186;28;20284;-78
2023/12/18 02:28:35;;;;;;;11.25;5.25;;;;;;;;;;5006807;28;20202;-78
2023/12/18 02:31:05;;;;;;;13.68;5.63;;;;;;;;;;5002846;28;20210;-79
2023/12/18 02:33:35;;;;;;;12.60;4.75;;;;;;;;;;5003168;28;20566;-78
2023/12/18 02:36:05;;;;;;;12.77;5.13;;;;;;;;;;4999869;28;20225;-78
2023/12/18 02:38:36;;;;;;;17.27;5.82;;;;;;;;;;5001883;28;20207;-78
2023/12/18 02:41:06;;;;;;;12.77;5.68;;;;;;;;;;5002641;28;20223;-79
2023/12/18 02:43:36;;;;;;;15.55;5.18;;;;;;;;;;4996344;28;20239;-79
2023/12/18 02:46:06;;;;;;;16.73;5.13;;;;;;;;;;5001601;28;20226;-79
2023/12/18 02:48:36;;;;;;;16.23;5.53;;;;;;;;;;5005431;28;20293;-78
2023/12/18 02:51:07;;;;;;;15.50;5.38;;;;;;;;;;5013761;28;20213;-79
2023/12/18 02:53:38;;;;;;;11.27;4.47;;;;;;;;;;5002543;28;20738;-79
2023/12/18 02:56:09;;;;;;;12.55;5.00;;;;;;;;;;5004521;28;20528;-78
2023/12/18 02:58:39;;;;;;;17.98;5.03;;;;;;;;;;5001889;28;20205;-79
2023/12/18 03:01:08;;;;;;;11.00;4.55;;;;;;;;;;4999168;28;20208;-76
2023/12/18 03:03:38;;;;;;;14.10;4.60;;;;;;;;;;4993475;28;20196;-78
2023/12/18 03:06:08;;;;;;;10.63;4.65;;;;;;;;;;4993296;28;20664;-76
2023/12/18 03:08:41;;;;;;;16.27;4.82;;;;;;;;;;4996933;28;20203;-78
2023/12/18 03:11:11;;;;;;;10.60;4.15;;;;;;;;;;4997389;28;20285;-77
2023/12/18 03:13:41;;;;;;;12.10;4.45;;;;;;;;;;4993181;28;20205;-78
2023/12/18 03:16:11;;;;;;;12.15;4.53;;;;;;;;;;4993568;28;20211;-77
2023/12/18 03:18:41;;;;;;;12.90;5.15;;;;;;;;;;4993809;28;20219;-78
2023/12/18 03:21:12;;;;;;;12.15;4.32;;;;;;;;;;5004490;28;20200;-77
2023/12/18 03:23:44;;;;;;;15.65;4.43;;;;;;;;;;5001144;28;20184;-79
2023/12/18 03:26:14;;;;;;;12.60;3.70;;;;;;;;;;4996965;28;20206;-77
2023/12/18 03:28:44;;;;;;;12.43;4.05;;;;;;;;;;5012651;28;20206;-78
2023/12/18 03:31:14;;;;;;;15.90;4.55;;;;;;;;;;5012002;28;20195;-77
2023/12/18 03:33:44;;;;;;;12.60;4.65;;;;;;;;;;5001791;28;20229;-78
2023/12/18 03:36:14;;;;;;;12.18;5.18;;;;;;;;;;5004328;28;20659;-77
2023/12/18 03:38:46;;;;;;;16.52;7.35;;;;;;;;;;5010489;28;20203;-78
2023/12/18 03:41:16;;;;;;;14.10;5.43;;;;;;;;;;5013907;28;20217;-79
2023/12/18 03:43:46;;;;;;;14.60;6.32;;;;;;;;;;5003075;28;20234;-78
2023/12/18 03:46:16;;;;;;;17.10;6.55;;;;;;;;;;5006488;28;20211;-79
2023/12/18 03:48:46;;;;;;;12.10;5.03;;;;;;;;;;5008812;28;20195;-75
2023/12/18 03:51:16;;;;;;;14.02;5.03;;;;;;;;;;5000884;28;20198;-78
2023/12/18 03:53:48;;;;;;;12.88;4.68;;;;;;;;;;5008708;28;20647;-78
2023/12/18 03:56:21;;;;;;;10.90;4.30;;;;;;;;;;4996954;28;20192;-79
2023/12/18 03:58:51;;;;;;;15.65;6.43;;;;;;;;;;4996267;28;20210;-81
2023/12/18 04:01:20;;;;;;;14.65;4.90;;;;;;;;;;5008340;28;20198;-79
2023/12/18 04:03:50;;;;;;;10.88;5.50;;;;;;;;;;4999763;28;20205;-77
2023/12/18 04:06:20;;;;;;;15.50;5.85;;;;;;;;;;5004359;28;20555;-80
2023/12/18 04:08:52;;;;;;;15.80;6.10;;;;;;;;;;5012277;28;20214;-78
2023/12/18 04:11:21;;;;;;;15.63;5.60;;;;;;;;;;5010049;28;20199;-79
2023/12/18 04:13:51;;;;;;;12.80;4.93;;;;;;;;;;4995933;28;20204;-79
2023/12/18 04:16:21;;;;;;;12.20;4.97;;;;;;;;;;4996338;28;20239;-77
2023/12/18 04:18:52;;;;;;;16.70;6.10;;;;;;;;;;4997185;28;20250;-78
2023/12/18 04:21:22;;;;;;;15.30;5.20;;;;;;;;;;4995734;28;20295;-77
2023/12/18 04:23:54;;;;;;;14.60;5.45;;;;;;;;;;4995752;28;20213;-76
2023/12/18 04:26:24;;;;;;;17.08;5.10;;;;;;;;;;4995996;28;20231;-76
2023/12/18 04:28:54;;;;;;;17.98;4.65;;;;;;;;;;4995715;28;20222;-79
2023/12/18 04:31:24;;;;;;;12.85;4.78;;;;;;;;;;4997479;28;20192;-76
2023/12/18 04:33:54;;;;;;;14.93;5.90;;;;;;;;;;5015241;28;20206;-79
2023/12/18 04:36:24;;;;;;;16.33;7.65;;;;;;;;;;5002022;28;20571;-75
2023/12/18 04:38:56;;;;;;;18.02;6.32;;;;;;;;;;5015367;28;20294;-75
2023/12/18 04:41:26;;;;;;;17.10;7.43;;;;;;;;;;5004878;28;20223;-75
2023/12/18 04:43:56;;;;;;;18.73;7.20;;;;;;;;;;5004050;28;20233;-75
2023/12/18 04:46:26;;;;;;;16.33;6.45;;;;;;;;;;5014394;28;20206;-75
2023/12/18 04:48:56;;;;;;;15.52;5.60;;;;;;;;;;5015189;28;20215;-76
2023/12/18 04:51:26;;;;;;;14.70;4.50;;;;;;;;;;5014869;28;20199;-76
2023/12/18 05:18:45;;;;;;;13.27;4.40;;;;;;;;;;5014907;28;20213;-79
2023/12/18 05:21:15;;;;;;;13.85;4.30;;;;;;;;;;5014459;28;20550;-78
2023/12/18 05:23:47;;;;;;;16.27;4.20;;;;;;;;;;5014111;28;20290;-79
2023/12/18 05:26:17;;;;;;;12.73;4.18;;;;;;;;;;5014213;28;20218;-76
2023/12/18 05:28:47;;;;;;;15.80;4.40;;;;;;;;;;5014183;28;20199;-77
2023/12/18 05:31:18;;;;;;;21.90;5.28;;;;;;;;;;4995306;28;20210;-76
2023/12/18 05:33:50;;;;;;;17.08;4.40;;;;;;;;;;4994683;28;20223;-80
2023/12/18 05:36:20;;;;;;;14.95;4.05;;;;;;;;;;4994720;28;20195;-79
2023/12/18 05:38:50;;;;;;;19.17;4.38;;;;;;;;;;4994139;28;20207;-79
2023/12/18 05:41:20;;;;;;;14.18;4.30;;;;;;;;;;5002693;28;20706;-79
2023/12/18 05:43:50;;;;;;;12.85;4.32;;;;;;;;;;5013814;28;20270;-78
2023/12/18 05:46:20;;;;;;;17.52;4.75;;;;;;;;;;5011648;28;20233;-78
2023/12/18 05:48:52;;;;;;;19.60;4.60;;;;;;;;;;5003741;28;20197;-78
2023/12/18 05:51:22;;;;;;;15.18;3.78;;;;;;;;;;5014097;28;20584;-80
2023/12/18 05:53:52;;;;;;;16.08;3.88;;;;;;;;;;5002256;28;20210;-77
2023/12/18 05:56:22;;;;;;;13.80;3.63;;;;;;;;;;4993570;28;20229;-79
2023/12/18 05:58:53;;;;;;;17.83;4.65;;;;;;;;;;4993953;28;20679;-77
2023/12/18 06:01:23;;;;;;;17.02;3.88;;;;;;;;;;5005092;28;20187;-77
2023/12/18 06:03:55;;;;;;;14.80;3.72;;;;;;;;;;5013735;28;20199;-77
2023/12/18 06:06:25;;;;;;;19.45;8.05;;;;;;;;;;5013219;28;20572;-75
2023/12/18 06:08:55;;;;;;;17.88;4.18;;;;;;;;;;5000388;28;20207;-78
2023/12/18 06:11:25;;;;;;;15.18;3.85;;;;;;;;;;4994161;28;20204;-78
2023/12/18 06:13:55;;;;;;;13.30;3.88;;;;;;;;;;5011258;28;20210;-75
2023/12/18 06:16:25;;;;;;;13.15;3.60;;;;;;;;;;5003370;28;20208;-76
2023/12/18 06:18:59;;;;;;;15.48;3.60;;;;;;;;;;5009287;28;20223;-76
2023/12/18 06:21:29;;;;;;;14.05;3.72;;;;;;;;;;4996540;28;20187;-78
2023/12/18 06:23:59;;;;;;;16.30;3.80;;;;;;;;;;5007082;28;20365;-76
2023/12/18 06:26:29;;;;;;;17.20;4.00;;;;;;;;;;4998832;28;20322;-76
2023/12/18 06:28:59;;;;;;;16.23;4.43;;;;;;;;;;5004792;28;20226;-78
2023/12/18 06:31:28;;;;;;;12.52;3.90;;;;;;;;;;5000139;28;20203;-80
2023/12/18 06:34:00;;;;;;;16.60;4.15;;;;;;;;;;4997329;28;20289;-79
2023/12/18 06:36:30;;;;;;;16.58;3.90;;;;;;;;;;4994018;28;20286;-78
2023/12/18 06:39:00;;;;;;;14.70;3.92;;;;;;;;;;5003406;28;20278;-77
2023/12/18 06:41:30;;;;;;;19.05;4.47;;;;;;;;;;4997846;28;20211;-78
2023/12/18 06:44:00;;;;;;;16.20;4.72;;;;;;;;;;4993491;28;20327;-78
2023/12/18 06:46:30;;;;;;;15.68;4.35;;;;;;;;;;4993806;28;20227;-77
2023/12/18 06:49:02;;;;;;;14.80;4.00;;;;;;;;;;4994488;28;20195;-78
2023/12/18 06:51:32;;;;;;;20.80;4.57;;;;;;;;;;4996106;28;20210;-78
2023/12/18 06:54:02;;;;;;;12.18;3.30;;;;;;;;;;5007628;28;20199;-75
2023/12/18 06:56:32;;;;;;;22.48;4.57;;;;;;;;;;5021310;28;20207;-77
2023/12/18 06:59:02;;;;;;;16.38;4.20;;;;;;;;;;5004070;28;20282;-76
2023/12/18 07:01:32;;;;;;;18.52;4.57;;;;;;;;;;4992335;28;20207;-77
2023/12/18 07:04:04;;;;;;;16.52;4.05;;;;;;;;;;4997919;28;20281;-76
2023/12/18 07:06:34;;;;;;;16.67;4.40;;;;;;;;;;5012756;28;20219;-77
2023/12/18 07:09:04;;;;;;;23.48;5.38;;;;;;;;;;5014007;28;20209;-76
2023/12/18 07:11:34;;;;;;;13.55;4.25;;;;;;;;;;5016748;28;20202;-76
2023/12/18 07:14:04;;;;;;;17.17;3.97;;;;;;;;;;5015495;28;20195;-76
2023/12/18 07:16:35;;;;;;;17.30;4.43;;;;;;;;;;5016177;28;20658;-77
2023/12/18 07:19:07;;;;;;;15.88;4.25;;;;;;;;;;5015373;28;20230;-76
2023/12/18 07:21:37;;;;;;;22.50;4.13;;;;;;;;;;5002149;28;20242;-76
2023/12/18 07:24:07;;;;;;;19.95;4.45;;;;;;;;;;4997519;28;20197;-77
2023/12/18 07:26:37;;;;;;;21.20;4.13;;;;;;;;;;5005745;28;20323;-77
2023/12/18 07:29:07;;;;;;;18.23;4.03;;;;;;;;;;5006158;28;20664;-76
2023/12/18 07:31:37;;;;;;;20.17;4.53;;;;;;;;;;5013366;28;20206;-76
2023/12/18 07:34:09;;;;;;;19.60;3.88;;;;;;;;;;5005053;28;20205;-77
2023/12/18 07:36:40;;;;;;;17.38;4.53;;;;;;;;;;5015621;28;20207;-76
2023/12/18 07:39:10;;;;;;;16.23;4.15;;;;;;;;;;5009596;28;20196;-77
2023/12/18 07:41:40;;;;;;;20.05;4.70;;;;;;;;;;5000996;28;20588;-76
2023/12/18 07:44:10;;;;;;;19.38;3.97;;;;;;;;;;5008203;28;20199;-77
2023/12/18 07:46:40;;;;;;;19.77;4.47;;;;;;;;;;5005446;28;20223;-76
2023/12/18 07:49:12;;;;;;;15.73;4.65;;;;;;;;;;4998910;28;20218;-79
2023/12/18 07:51:42;;;;;;;20.85;4.95;;;;;;;;;;5004647;28;20206;-77
2023/12/18 07:54:12;;;;;;;22.88;4.57;;;;;;;;;;5009821;28;20214;-76
2023/12/18 07:56:42;;;;;;;22.83;5.00;;;;;;;;;;5011975;28;20209;-77
2023/12/18 07:59:13;;;;;;;19.75;5.13;;;;;;;;;;4995543;28;20292;-77
2023/12/18 08:01:43;;;;;;;18.42;4.78;;;;;;;;;;4996616;28;20658;-77
2023/12/18 08:04:15;;;;;;;25.70;4.70;;;;;;;;;;5006895;28;20207;-78
2023/12/18 08:06:47;;;;;;;15.82;4.35;;;;;;;;;;5005517;28;20710;-77
2023/12/18 08:09:17;;;;;;;18.13;4.60;;;;;;;;;;5012704;28;20205;-76
2023/12/18 08:11:47;;;;;;;19.70;4.55;;;;;;;;;;5005555;28;20203;-77
2023/12/18 08:14:16;;;;;;;17.85;4.80;;;;;;;;;;5007463;28;20286;-76
2023/12/18 08:16:46;;;;;;;22.55;4.88;;;;;;;;;;5008181;28;20669;-76
2023/12/18 08:19:18;;;;;;;24.60;5.00;;;;;;;;;;5006472;28;20207;-76
2023/12/18 08:21:48;;;;;;;22.60;5.00;;;;;;;;;;5006134;28;20561;-76
2023/12/18 08:24:18;;;;;;;24.45;5.05;;;;;;;;;;5001664;28;20204;-76
2023/12/18 08:26:49;;;;;;;19.10;4.80;;;;;;;;;;4994792;28;20229;-77
2023/12/18 08:29:19;;;;;;;21.95;4.70;;;;;;;;;;5006939;28;20202;-76
2023/12/18 08:31:49;;;;;;;18.75;4.90;;;;;;;;;;5007436;28;20287;-76
2023/12/18 08:34:21;;;;;;;19.10;4.97;;;;;;;;;;5003973;28;20205;-77
2023/12/18 08:36:52;;;;;;;22.70;4.80;;;;;;;;;;5000560;28;20290;-76
2023/12/18 08:39:23;;;;;;;23.65;5.25;;;;;;;;;;5004031;28;20668;-76
2023/12/18 08:41:53;;;;;;;25.73;5.60;;;;;;;;;;5012314;28;20222;-76
2023/12/18 08:44:24;;;;;;;23.05;5.50;;;;;;;;;;5001750;23;20238;-76
2023/12/18 08:46:54;;;;;;;23.83;5.30;;;;;;;;;;4988055;28;20230;-75
2023/12/18 08:49:26;;;;;;;23.48;5.35;;;;;;;;;;4993673;28;20204;-76
2023/12/18 08:51:56;;;;;;;17.38;4.68;;;;;;;;;;4993814;28;20214;-75
2023/12/18 08:54:26;;;;;;;24.63;5.28;;;;;;;;;;4995352;28;20203;-76
2023/12/18 08:56:56;;;;;;;23.52;5.60;;;;;;;;;;5002534;28;20211;-76
2023/12/18 08:59:25;;;;;;;25.00;5.43;;;;;;;;;;5000532;28;20198;-76
2023/12/18 09:01:55;;;;;;;23.30;5.55;;;;;;;;;;4994019;28;20242;-76
2023/12/18 09:04:27;;;;;;;26.55;5.45;;;;;;;;;;4993279;28;20231;-76
2023/12/18 09:06:57;;;;;;;19.95;5.50;;;;;;;;;;4991771;28;20326;-76
2023/12/18 09:09:27;;;;;;;22.95;5.40;;;;;;;;;;5005383;28;20290;-76
2023/12/18 09:11:57;;;;;;;23.13;5.95;;;;;;;;;;4994637;28;20210;-76
2023/12/18 09:14:27;;;;;;;22.83;6.30;;;;;;;;;;4998873;28;20207;-76
2023/12/18 09:16:57;;;;;;;22.17;5.97;;;;;;;;;;4994219;28;20210;-76
2023/12/18 09:19:29;;;;;;;21.15;5.55;;;;;;;;;;4996686;28;20240;-77
2023/12/18 09:21:59;;;;;;;22.00;5.80;;;;;;;;;;4994581;28;20199;-76
2023/12/18 09:24:29;;;;;;;24.75;5.82;;;;;;;;;;4994705;28;20203;-76
2023/12/18 09:26:59;;;;;;;27.85;6.35;;;;;;;;;;4998156;28;20609;-76
2023/12/18 09:29:29;;;;;;;18.92;5.45;;;;;;;;;;5001568;28;20558;-76
2023/12/18 09:31:59;;;;;;;22.27;5.75;;;;;;;;;;4994222;28;20199;-75
2023/12/18 09:34:31;;;;;;;19.52;5.30;;;;;;;;;;4993751;28;20555;-76
2023/12/18 09:37:01;;;;;;;19.20;5.03;;;;;;;;;;4991074;28;20200;-76
2023/12/18 09:39:31;;;;;;;19.02;5.40;;;;;;;;;;5000033;28;20681;-76
2023/12/18 09:42:04;;;;;;;23.45;5.80;;;;;;;;;;4998603;28;20203;-76
2023/12/18 09:44:34;;;;;;;19.70;5.63;;;;;;;;;;4974512;28;20239;-76
2023/12/18 09:47:04;;;;;;;17.58;5.75;;;;;;;;;;4981885;28;20229;-76
2023/12/18 09:49:36;;;;;;;18.02;4.80;;;;;;;;;;4973324;28;20644;-76
2023/12/18 09:52:08;;;;;;;25.27;5.88;;;;;;;;;;4978607;28;20204;-76
2023/12/18 09:54:40;;;;;;;21.50;5.68;;;;;;;;;;4974343;28;20200;-76
2023/12/18 09:57:10;;;;;;;16.48;5.53;;;;;;;;;;4982331;28;20200;-76
2023/12/18 09:59:40;;;;;;;22.35;5.70;;;;;;;;;;4979619;28;20214;-76
2023/12/18 10:02:11;;;;;;;18.70;5.43;;;;;;;;;;4981064;28;20214;-76
2023/12/18 10:04:45;;;;;;;28.05;6.60;;;;;;;;;;4986352;28;20196;-76
2023/12/18 10:07:15;;;;;;;20.48;5.70;;;;;;;;;;4972649;28;20219;-76
2023/12/18 10:09:45;;;;;;;20.65;5.95;;;;;;;;;;4986905;28;20207;-76
2023/12/18 10:12:17;;;;;;;18.13;5.53;;;;;;;;;;4976390;28;20200;-76
2023/12/18 10:14:47;;;;;;;18.55;5.43;;;;;;;;;;4979021;28;20196;-76
2023/12/18 10:17:17;;;;;;;16.63;6.15;;;;;;;;;;4977721;28;20237;-76
2023/12/18 10:19:49;;;;;;;21.35;6.07;;;;;;;;;;4978888;28;20199;-76
2023/12/18 10:22:19;;;;;;;18.48;6.00;;;;;;;;;;4978297;28;20200;-76
2023/12/18 10:24:50;;;;;;;15.07;5.57;;;;;;;;;;4983927;28;20206;-76
2023/12/18 10:27:21;;;;;;;23.08;6.10;;;;;;;;;;4985186;28;20226;-76
2023/12/18 10:29:53;;;;;;;15.93;6.05;;;;;;;;;;4981089;28;20223;-76
2023/12/18 10:32:23;;;;;;;19.38;5.90;;;;;;;;;;4976148;28;20199;-76
2023/12/18 10:34:56;;;;;;;21.23;6.28;;;;;;;;;;4979601;28;20206;-76
2023/12/18 10:37:29;;;;;;;17.17;5.60;;;;;;;;;;4973508;28;20652;-77
2023/12/18 10:40:02;;;;;;;15.50;5.88;;;;;;;;;;4972197;28;20210;-77
2023/12/18 10:42:33;;;;;;;14.75;5.80;;;;;;;;;;4975418;28;20196;-76
2023/12/18 10:45:06;;;;;;;16.13;5.82;;;;;;;;;;4980276;28;20200;-76
2023/12/18 10:47:36;;;;;;;13.80;5.65;;;;;;;;;;4980779;28;20548;-77
2023/12/18 10:50:08;;;;;;;14.13;6.10;;;;;;;;;;4978167;28;20652;-76
2023/12/18 10:52:39;;;;;;;21.92;6.97;;;;;;;;;;4977930;28;20214;-76
2023/12/18 10:55:10;;;;;;;16.23;6.38;;;;;;;;;;4978820;28;20199;-76
2023/12/18 10:57:41;;;;;;;16.38;6.00;;;;;;;;;;4981051;28;20208;-76
2023/12/18 11:00:14;;;;;;;12.23;5.78;;;;;;;;;;4979209;28;20286;-76
2023/12/18 11:02:44;;;;;;;16.83;6.50;;;;;;;;;;4976441;28;20203;-76
2023/12/18 11:05:17;;;;;;;18.02;6.53;;;;;;;;;;4975786;28;20231;-75
2023/12/18 11:07:47;;;;;;;16.88;6.07;;;;;;;;;;4977018;28;20204;-76
2023/12/18 11:10:17;;;;;;;17.60;6.38;;;;;;;;;;4987246;28;20215;-77
2023/12/18 11:12:47;;;;;;;18.30;6.90;;;;;;;;;;4989099;28;20196;-76
2023/12/18 11:15:23;;;;;;;17.58;6.95;;;;;;;;;;4981909;28;20200;-76
2023/12/18 11:17:57;;;;;;;18.02;6.80;;;;;;;;;;4983518;28;20190;-76
2023/12/18 11:20:34;;;;;;;21.98;7.22;;;;;;;;;;4980068;28;20196;-76
2023/12/18 11:23:05;;;;;;;17.73;7.00;;;;;;;;;;4984192;28;20565;-76
2023/12/18 11:25:35;;;;;;;15.48;6.82;;;;;;;;;;4985845;28;20251;-76
2023/12/18 11:28:05;;;;;;;15.48;6.80;;;;;;;;;;4980515;28;20220;-76
2023/12/18 11:30:37;;;;;;;15.60;6.53;;;;;;;;;;4980233;28;20207;-76
2023/12/18 11:33:08;;;;;;;17.15;5.85;;;;;;;;;;4977434;28;20224;-76
2023/12/18 11:35:40;;;;;;;14.52;6.30;;;;;;;;;;4977223;28;20199;-76
2023/12/18 11:38:10;;;;;;;16.90;6.68;;;;;;;;;;4993766;28;20199;-76
2023/12/18 11:40:40;;;;;;;16.50;6.38;;;;;;;;;;4996660;28;20290;-76
2023/12/18 11:43:10;;;;;;;10.95;6.03;;;;;;;;;;4996503;28;20242;-76
2023/12/18 11:45:41;;;;;;;13.70;6.60;;;;;;;;;;4986130;28;20227;-76
2023/12/18 11:48:12;;;;;;;17.88;6.78;;;;;;;;;;4977109;28;20308;-76
2023/12/18 11:50:44;;;;;;;17.80;6.38;;;;;;;;;;4975255;28;20191;-76
2023/12/18 11:53:22;;;;;;;17.95;6.03;;;;;;;;;;4982459;28;20207;-77
2023/12/18 11:55:55;;;;;;;14.85;6.57;;;;;;;;;;4978592;28;20204;-76
2023/12/18 11:58:28;;;;;;;17.08;6.90;;;;;;;;;;4980251;28;20740;-75
2023/12/18 12:00:58;;;;;;;15.57;6.40;;;;;;;;;;4995112;28;20538;-77
2023/12/18 12:03:30;;;;;;;13.48;6.85;;;;;;;;;;4990800;28;20203;-76
2023/12/18 12:06:03;;;;;;;17.58;6.20;;;;;;;;;;4976948;28;20247;-76
2023/12/18 12:08:33;;;;;;;11.73;6.30;;;;;;;;;;4975444;28;20583;-76
2023/12/18 12:11:03;;;;;;;10.57;6.35;;;;;;;;;;4976706;28;20208;-76
2023/12/18 12:13:32;;;;;;;16.67;6.80;;;;;;;;;;4977138;28;20204;-76
2023/12/18 12:16:03;;;;;;;14.43;6.60;;;;;;;;;;4985381;28;20203;-76
2023/12/18 12:18:33;;;;;;;15.90;6.28;;;;;;;;;;4995344;28;20726;-76
2023/12/18 12:21:05;;;;;;;13.35;6.55;;;;;;;;;;4996118;28;20203;-76
2023/12/18 12:23:36;;;;;;;15.45;6.82;;;;;;;;;;4995935;28;20210;-76
2023/12/18 12:26:09;;;;;;;19.67;7.35;;;;;;;;;;4996057;28;20197;-75
2023/12/18 12:28:39;;;;;;;12.68;6.60;;;;;;;;;;4996015;28;20219;-76
2023/12/18 12:31:08;;;;;;;14.07;7.10;;;;;;;;;;4995948;28;20215;-76
2023/12/18 12:33:44;;;;;;;18.98;7.38;;;;;;;;;;4995469;28;20199;-76
2023/12/18 12:36:18;;;;;;;17.63;7.10;;;;;;;;;;4995848;28;20203;-77
2023/12/18 12:38:48;;;;;;;10.88;5.90;;;;;;;;;;4991138;28;20251;-77
2023/12/18 12:41:19;;;;;;;18.75;7.80;;;25.00;99.90;;;;;;4990334;28;20548;-76
2023/12/18 12:43:50;;;;;;;17.73;6.45;;;24.70;99.90;;;;;;4986387;28;20247;-77
2023/12/18 12:46:20;;;;;;;11.45;6.25;;;;;;;;;;4995029;28;20295;-77
2023/12/18 12:48:51;;;;;;;13.45;6.78;;;24.70;99.90;;;;;;4976724;28;20200;-76
2023/12/18 12:51:26;;;;;;;17.13;7.22;;;24.60;99.90;;;;;;4974808;28;20196;-78
2023/12/18 12:53:56;;;;;;;14.48;7.28;;;24.60;99.90;;;;;;4975160;28;20196;-76
2023/12/18 12:56:27;;;;;;;15.38;6.95;;;24.60;99.90;;;;;;4975336;28;20223;-77
2023/12/18 12:58:59;;;;;;;19.70;7.20;;;24.60;99.90;;;;;;4975678;28;20280;-77
2023/12/18 13:01:29;;;;;;;16.92;7.03;;;24.60;99.90;;;;;;4983396;28;20195;-76
2023/12/18 13:03:59;;;;;;;15.38;6.90;;;;;;;;;;4984057;28;20197;-76
2023/12/18 13:06:32;;;;;;;16.60;7.13;;;24.60;99.90;;;;;;4992722;28;20703;-76
2023/12/18 13:09:03;;;;;;;14.00;7.22;;;24.60;99.90;;;;;;4988418;28;20272;-76
2023/12/18 13:11:37;;;;;;;14.98;7.22;;;24.60;99.90;;;;;;4975300;28;20200;-75
2023/12/18 13:14:08;;;;;;;13.50;7.25;;;24.60;99.90;;;;;;4976191;28;20278;-75
2023/12/18 13:16:39;;;;;;;18.13;7.80;;;24.60;99.90;;;;;;4986963;28;20570;-77
2023/12/18 13:19:09;;;;;;;14.68;7.18;;;;;;;;;;4975310;28;20197;-77
2023/12/18 13:21:41;;;;;;;14.00;7.35;;;24.60;99.90;;;;;;4991741;28;20203;-76
2023/12/18 13:24:29;;;;;;;17.85;7.85;;;24.70;99.90;;;;;;4992448;28;20665;-80
2023/12/18 13:27:00;;;;;;;15.00;7.05;;;24.70;99.90;;;;;;4982432;28;20215;-77
2023/12/18 13:29:33;;;;;;;15.50;7.50;;;24.70;99.90;;;;;;4980114;28;20193;-78
2023/12/18 13:32:04;;;;;;;17.92;8.30;;;24.70;99.90;;;;;;4989236;28;20196;-76
2023/12/18 13:34:36;;;;;;;17.05;7.93;;;24.70;99.90;;;;;;4983908;28;20559;-75
2023/12/18 13:37:09;;;;;;;14.60;7.78;;;24.70;99.90;;;;;;4982135;28;20203;-76
2023/12/18 13:39:40;;;;;;;17.30;8.05;;;24.60;99.90;;;;;;4981619;28;20672;-75
2023/12/18 13:42:14;;;;;;;17.70;8.25;;;24.70;99.90;;;;;;4985355;28;20723;-77
2023/12/18 13:44:45;;;;;;;14.32;7.47;;;24.70;99.90;;;;;;5006450;23;20241;-76
2023/12/18 13:47:17;;;;;;;19.00;8.32;;;24.70;99.90;;;;;;4983143;28;20690;-76
2023/12/18 13:49:48;;;;;;;17.30;7.45;;;24.70;99.90;;;;;;4984673;28;20202;-75
2023/12/18 13:52:21;;;;;;;15.80;8.27;;;24.70;99.90;;;;;;4978892;28;20195;-77
2023/12/18 13:54:53;;;;;;;20.23;7.93;;;24.70;99.90;;;;;;4974487;28;20199;-77
2023/12/18 13:57:23;;;;;;;19.42;8.43;;;24.70;99.90;;;;;;4975638;28;20612;-78
2023/12/18 13:59:54;;;;;;;17.02;8.07;;;24.70;99.90;;;;;;4977238;28;20196;-77
2023/12/18 14:02:24;;;;;;;18.05;8.13;;;;;;;;;;4987988;28;20209;-77
2023/12/18 14:04:55;;;;;;;15.55;7.80;;;24.70;99.90;;;;;;4975162;28;20259;-76
2023/12/18 14:07:29;;;;;;;16.90;7.57;;;24.70;99.90;;;;;;4988000;28;20266;-76
2023/12/18 14:09:59;;;;;;;14.98;6.78;;;24.70;99.90;;;;;;4975366;28;20555;-76
2023/12/18 14:12:30;;;;;;;12.90;6.57;;;24.70;99.90;;;;;;4988533;28;20188;-77
2023/12/18 14:15:01;;;;;;;14.73;6.68;;;24.70;99.90;;;;;;4982719;28;20636;-75
2023/12/18 14:17:32;;;;;;;12.77;5.90;;;24.70;99.90;;;;;;4982502;28;20193;-75
2023/12/18 14:20:04;;;;;;;11.85;6.28;;;24.70;99.90;;;;;;4974130;28;20316;-75
2023/12/18 14:22:37;;;;;;;8.98;5.85;;;24.70;99.90;;;;;;4986818;28;20200;-75
2023/12/18 14:25:09;;;;;;;11.95;5.88;;;24.70;99.90;;;;;;4990853;28;20194;-77
2023/12/18 14:27:39;;;;;;;10.82;6.25;;;24.60;99.90;;;;;;4992953;28;20257;-76
2023/12/18 14:30:11;;;;;;;10.98;6.93;;;24.70;99.90;;;;;;4993165;28;20203;-76
2023/12/18 14:32:41;;;;;;;12.93;5.72;;;24.70;99.90;;;;;;4981165;28;20215;-77
2023/12/18 14:35:12;;;;;;;14.73;7.00;;;24.60;99.90;;;;;;4985907;28;20196;-75
2023/12/18 14:37:45;;;;;;;16.42;6.90;;;24.60;99.90;;;;;;4973846;28;20192;-77
2023/12/18 14:40:16;;;;;;;17.85;6.85;;;24.60;99.90;;;;;;4975252;28;20279;-76
2023/12/18 14:42:47;;;;;;;11.60;6.55;;;24.60;99.90;;;;;;4993584;28;20570;-75
2023/12/18 14:45:18;;;;;;;14.68;6.32;;;24.60;99.90;;;;;;4990000;28;20235;-76
2023/12/18 14:47:49;;;;;;;14.13;6.55;;;24.70;99.90;;;;;;4977155;28;20563;-76
2023/12/18 14:50:20;;;;;;;11.10;6.35;;;24.60;99.90;;;;;;4975298;28;20200;-76
2023/12/18 14:52:54;;;;;;;17.05;7.68;;;24.70;99.90;;;;;;4980088;28;20199;-76
2023/12/18 14:55:26;;;;;;;16.50;6.82;;;24.70;99.90;;;;;;4974230;28;20640;-76
2023/12/18 14:58:00;;;;;;;17.88;7.28;;;24.70;99.90;;;;;;4974614;28;20192;-77
2023/12/18 15:00:31;;;;;;;14.82;6.75;;;24.70;99.90;;;;;;4985742;28;20191;-76
2023/12/18 15:03:03;;;;;;;19.13;7.18;;;24.70;99.90;;;;;;4975051;28;20546;-76
2023/12/18 15:05:34;;;;;;;18.23;7.00;;;24.70;99.90;;;;;;4988782;28;20193;-76
2023/12/18 15:08:07;;;;;;;18.58;6.95;;;24.70;99.90;;;;;;4987610;28;20649;-76
2023/12/18 15:10:38;;;;;;;17.73;6.30;;;24.70;99.90;;;;;;4975271;28;20199;-76
2023/12/18 15:13:09;;;;;;;19.60;6.45;;;24.70;99.90;;;;;;4975142;28;20196;-76
2023/12/18 15:15:40;;;;;;;13.07;6.22;;;24.70;99.90;;;;;;4975099;28;20193;-76
2023/12/18 15:18:10;;;;;;;16.90;6.07;;;24.60;99.90;;;;;;4985211;28;20654;-75
2023/12/18 15:20:42;;;;;;;16.98;6.03;;;24.60;99.90;;;;;;4982889;28;20189;-76
2023/12/18 15:23:16;;;;;;;19.83;6.05;;;24.60;99.90;;;;;;4977433;28;20200;-76
2023/12/18 15:25:47;;;;;;;17.98;5.93;;;24.60;99.90;;;;;;4990935;28;20195;-76
2023/12/18 15:28:17;;;;;;;14.48;4.90;;;24.60;99.90;;;;;;4993047;28;20679;-76
2023/12/18 15:30:48;;;;;;;14.52;4.85;;;24.50;99.90;;;;;;4995051;28;20658;-75
2023/12/18 15:33:19;;;;;;;15.68;4.75;;;24.50;99.90;;;;;;4983196;28;20196;-76
2023/12/18 15:35:51;;;;;;;13.43;4.80;;;24.50;99.90;;;;;;4979521;28;20189;-76
2023/12/18 15:38:24;;;;;;;16.52;4.85;;;24.50;99.90;;;;;;4996195;28;20195;-77
2023/12/18 15:40:55;;;;;;;15.98;4.75;;;;;;;;;;4986214;28;20189;-76